Time;durP1;ratioP1;P1;durP2;ratioP2;P2;SDS_P1;SDS_P2;PMS_P1;PMS_P2;Temp;Humidity;BMP_temperature;BMP_pressure;BME280_temperature;BME280_humidity;BME280_pressure;Samples;Min_cycle;Max_cycle;Signal;HPM_P1;HPM_P2
2023/09/03 00:01:04;;;;;;;3.87;1.80;;;;;;;27.08;42.14;100149.59;4483392;32;33361;-72
2023/09/03 00:03:32;;;;;;;4.12;2.30;;;;;;;27.07;42.19;100145.19;4483468;32;33426;-80
2023/09/03 00:06:00;;;;;;;3.75;2.10;;;;;;;27.05;42.20;100147.34;4483171;32;34669;-71
2023/09/03 00:08:28;;;;;;;5.05;2.10;;;;;;;27.03;42.22;100147.56;4482184;32;34504;-78
2023/09/03 00:10:58;;;;;;;;;;;;;;;27.00;42.24;100145.34;4483577;32;33895;-80
2023/09/03 00:13:26;;;;;;;3.95;1.80;;;;;;;27.06;42.10;100144.34;4483167;32;33159;-79
2023/09/03 00:15:53;;;;;;;5.03;2.10;;;;;;;26.96;42.32;100138.69;4482095;32;33028;-74
2023/09/03 00:18:21;;;;;;;4.85;2.12;;;;;;;26.90;42.46;100140.44;4481800;31;33479;-74
2023/09/03 00:20:56;;;;;;;5.47;2.08;;;;;;;26.87;42.60;100132.75;4481761;32;33795;-74
2023/09/03 00:23:24;;;;;;;3.83;1.85;;;;;;;26.93;42.43;100133.66;4469057;32;32275;-72
2023/09/03 00:25:52;;;;;;;3.40;1.90;;;;;;;26.96;42.28;100127.72;4483004;32;33378;-79
2023/09/03 00:28:19;;;;;;;4.07;2.17;;;;;;;26.97;42.20;100123.91;4481280;32;34366;-80
2023/09/03 00:31:01;;;;;;;3.70;2.08;;;;;;;26.96;42.16;100125.81;4468939;32;34429;-80
2023/09/03 00:33:29;;;;;;;5.65;2.12;;;;;;;26.97;42.13;100126.66;4482921;32;33290;-73
2023/09/03 00:35:58;;;;;;;3.75;1.70;;;;;;;26.95;42.17;100126.03;4481745;32;34677;-79
2023/09/03 00:38:26;;;;;;;4.87;2.40;;;;;;;26.94;42.15;100125.22;4482836;32;35008;-81
2023/09/03 00:40:54;;;;;;;3.80;2.10;;;;;;;26.93;42.15;100115.34;4468679;32;34179;-79
2023/09/03 00:43:21;;;;;;;3.62;2.08;;;;;;;26.94;42.13;100121.63;4468745;32;33280;-80
2023/09/03 00:45:49;;;;;;;4.65;1.98;;;;;;;26.93;42.13;100118.06;4482813;32;33547;-76
2023/09/03 00:48:18;;;;;;;3.95;2.10;;;;;;;26.93;42.12;100123.56;4468757;32;34805;-79
2023/09/03 00:50:46;;;;;;;;;;;;;;;26.92;42.13;100121.91;4483576;32;34279;-74
2023/09/03 00:53:15;;;;;;;3.17;1.87;;;;;;;27.03;41.92;100117.44;4484960;32;33538;-72
2023/09/03 00:55:43;;;;;;;4.37;2.17;;;;;;;26.93;42.08;100117.25;4484988;32;34904;-77
2023/09/03 00:58:11;;;;;;;3.67;1.95;;;;;;;26.90;42.15;100134.16;4470751;32;34816;-71
2023/09/03 01:00:39;;;;;;;4.40;2.05;;;;;;;26.90;42.17;100134.16;4457879;32;33500;-77
2023/09/03 01:03:06;;;;;;;4.22;2.17;;;;;;;26.89;42.17;100127.84;4483853;32;33775;-73
2023/09/03 01:05:35;;;;;;;4.78;1.95;;;;;;;26.88;42.17;100130.84;4483638;32;33992;-80
2023/09/03 01:08:02;;;;;;;4.12;2.15;;;;;;;26.87;42.17;100119.06;4484791;32;33874;-74
2023/09/03 01:11:05;;;;;;;3.78;2.10;;;;;;;26.87;42.16;100121.78;4484859;31;33075;-81
2023/09/03 01:13:41;;;;;;;4.22;1.85;;;;;;;26.90;42.08;100123.19;4459705;31;33281;-79
2023/09/03 01:16:20;;;;;;;2.50;1.60;;;;;;;26.87;42.23;100115.47;4483475;32;33961;-73
2023/09/03 01:18:48;;;;;;;3.85;2.00;;;;;;;26.85;42.22;100114.87;4458856;32;33267;-80
2023/09/03 01:21:40;;;;;;;3.95;2.20;;;;;;;26.86;42.18;100108.31;4470672;32;33694;-79
2023/09/03 01:24:27;;;;;;;5.47;2.33;;;;;;;26.86;42.20;100102.84;4473621;32;33765;-80
2023/09/03 01:27:27;;;;;;;4.62;2.17;;;;;;;26.86;42.15;100108.31;4484637;32;34841;-80
2023/09/03 01:29:55;;;;;;;5.62;2.35;;;;;;;26.88;42.15;100095.25;4481285;32;33808;-75
2023/09/03 01:32:23;;;;;;;3.22;1.98;;;;;;;26.84;42.16;100091.31;4483325;32;33794;-81
2023/09/03 01:34:50;;;;;;;4.85;1.95;;;;;;;26.84;42.16;100099.53;4483436;32;33094;-75
2023/09/03 01:37:18;;;;;;;4.15;2.15;;;;;;;26.84;42.14;100107.75;4483490;32;34422;-81
2023/09/03 01:39:46;;;;;;;3.35;2.00;;;;;;;26.82;42.09;100107.16;4483341;32;33652;-80
2023/09/03 01:42:14;;;;;;;3.05;1.77;;;;;;;26.83;42.07;100108.81;4457540;32;32981;-79
2023/09/03 01:44:42;;;;;;;3.87;2.03;;;;;;;26.81;42.08;100103.56;4483363;32;33119;-73
2023/09/03 01:47:43;;;;;;;3.25;1.85;;;;;;;26.81;42.02;100097.25;4483201;32;34489;-80
2023/09/03 01:50:42;;;;;;;4.12;2.33;;;;;;;26.83;41.95;100095.13;4483217;32;33856;-77
2023/09/03 01:53:13;;;;;;;4.40;1.90;;;;;;;26.81;41.97;100097.25;4483365;32;33814;-81
2023/09/03 01:55:41;;;;;;;3.92;1.90;;;;;;;26.76;41.98;100100.72;4484645;32;33185;-79
2023/09/03 01:58:10;;;;;;;4.30;2.00;;;;;;;26.76;41.94;100102.63;4470393;32;33285;-74
2023/09/03 02:00:38;;;;;;;3.00;1.90;;;;;;;26.75;41.92;100098.25;4470553;32;34394;-75
2023/09/03 02:03:06;;;;;;;4.15;2.00;;;;;;;26.73;42.02;100105.88;4484381;32;33397;-74
2023/09/03 02:05:34;;;;;;;3.70;1.90;;;;;;;26.73;42.03;100103.12;4483270;32;33868;-79
2023/09/03 02:08:01;;;;;;;2.95;1.90;;;;;;;26.70;42.01;100098.97;4470138;32;32812;-77
2023/09/03 02:10:29;;;;;;;3.05;1.85;;;;;;;26.69;42.00;100100.03;4483244;32;33977;-77
2023/09/03 02:12:57;;;;;;;3.53;1.90;;;;;;;26.68;41.99;100099.22;4484461;32;33800;-80
2023/09/03 02:15:25;;;;;;;3.08;1.85;;;;;;;26.70;41.97;100101.69;4483084;32;34212;-81
2023/09/03 02:17:53;;;;;;;4.53;2.00;;;;;;;26.68;41.96;100106.59;4483480;32;34097;-80
2023/09/03 02:20:21;;;;;;;3.03;1.70;;;;;;;26.67;41.94;100099.44;4484398;32;33673;-77
2023/09/03 02:22:49;;;;;;;5.22;2.00;;;;;;;26.65;41.94;100105.16;4484271;32;34523;-75
2023/09/03 02:25:16;;;;;;;3.95;1.90;;;;;;;26.66;41.87;100108.72;4484409;32;33271;-76
2023/09/03 02:27:44;;;;;;;2.78;1.92;;;;;;;26.64;41.85;100108.97;4484350;32;33166;-75
2023/09/03 02:30:12;;;;;;;3.97;2.10;;;;;;;26.64;41.86;100108.97;4482757;32;33829;-78
2023/09/03 02:32:40;;;;;;;3.65;2.12;;;;;;;26.63;41.87;100110.06;4483060;32;33825;-80
2023/09/03 02:35:07;;;;;;;4.37;2.10;;;;;;;26.62;41.87;100110.28;4484428;32;33118;-77
2023/09/03 02:37:35;;;;;;;4.65;2.33;;;;;;;26.61;41.85;100114.91;4484200;32;33878;-73
2023/09/03 02:40:03;;;;;;;4.62;1.65;;;;;;;26.60;41.86;100112.44;4484133;32;33496;-80
2023/09/03 02:42:31;;;;;;;3.37;1.77;;;;;;;26.61;41.85;100119.56;4483115;32;33835;-81
2023/09/03 02:44:59;;;;;;;3.25;1.85;;;;;;;26.59;41.89;100117.06;4470131;32;32318;-78
2023/09/03 02:47:27;;;;;;;3.95;1.73;;;;;;;26.53;42.01;100117.19;4484184;32;33537;-79
2023/09/03 02:49:55;;;;;;;3.25;2.17;;;;;;;26.50;42.09;100110.31;4484195;32;34023;-81
2023/09/03 02:52:23;;;;;;;3.90;2.12;;;;;;;26.48;42.14;100117.91;4484170;32;33448;-80
2023/09/03 02:54:51;;;;;;;4.20;2.10;;;;;;;26.45;42.24;100116.50;4470245;32;33350;-79
2023/09/03 02:57:19;;;;;;;4.82;1.67;;;;;;;26.43;42.25;100113.16;4483000;32;33860;-80
2023/09/03 02:59:46;;;;;;;3.95;1.80;;;;;;;26.43;42.32;100117.78;4482792;32;33952;-80
2023/09/03 03:02:14;;;;;;;3.62;1.83;;;;;;;26.41;42.36;100120.75;4484156;32;34606;-81
2023/09/03 03:04:42;;;;;;;4.35;1.92;;;;;;;26.40;42.39;100119.09;4484058;32;33380;-75
2023/09/03 03:07:10;;;;;;;5.68;2.20;;;;;;;26.38;42.50;100117.66;4484032;32;33511;-81
2023/09/03 03:09:38;;;;;;;5.07;2.08;;;;;;;26.36;42.56;100126.09;4484124;32;33976;-80
2023/09/03 03:12:06;;;;;;;3.50;1.67;;;;;;;26.34;42.61;100125.50;4484113;32;33740;-81
2023/09/03 03:14:34;;;;;;;3.05;1.75;;;;;;;26.33;42.65;100128.47;4483271;32;33015;-80
2023/09/03 03:17:02;;;;;;;3.55;1.95;;;;;;;26.33;42.66;100117.53;4484073;32;33895;-80
2023/09/03 03:19:29;;;;;;;3.55;1.80;;;;;;;26.32;42.67;100121.34;4483875;32;33935;-80
2023/09/03 03:21:58;;;;;;;3.42;1.87;;;;;;;26.31;42.76;100111.47;4484229;32;33581;-80
2023/09/03 03:24:26;;;;;;;3.87;2.00;;;;;;;26.30;42.78;100113.38;4469597;32;33423;-80
2023/09/03 03:26:54;;;;;;;3.53;2.00;;;;;;;26.30;42.82;100116.13;4483759;32;33514;-77
2023/09/03 03:29:23;;;;;;;4.03;1.92;;;;;;;26.29;42.84;100121.81;4482741;32;34654;-80
2023/09/03 03:31:51;;;;;;;4.47;2.17;;;;;;;26.29;42.87;100121.81;4483871;32;33736;-78
2023/09/03 03:34:19;;;;;;;3.53;1.80;;;;;;;26.28;42.85;100128.34;4482748;32;34114;-78
2023/09/03 03:36:47;;;;;;;5.32;2.00;;;;;;;26.27;42.87;100130.25;4483797;32;34714;-80
2023/09/03 03:39:15;;;;;;;4.62;2.10;;;;;;;26.29;42.86;100124.53;4483980;32;33578;-76
2023/09/03 03:41:43;;;;;;;3.50;2.00;;;;;;;26.29;42.86;100121.81;4482534;32;33617;-79
2023/09/03 03:44:11;;;;;;;3.20;1.95;;;;;;;26.29;42.85;100130.03;4483815;32;34061;-80
2023/09/03 03:46:39;;;;;;;3.87;2.05;;;;;;;26.28;42.86;100137.41;4482275;32;34135;-75
2023/09/03 03:49:08;;;;;;;3.87;1.90;;;;;;;26.27;42.88;100137.66;4483618;32;34737;-78
2023/09/03 03:51:35;;;;;;;3.67;1.87;;;;;;;26.25;42.92;100145.22;4482348;32;32989;-77
2023/09/03 03:54:05;;;;;;;3.50;1.83;;;;;;;26.25;42.93;100139.75;4482367;32;33385;-68
2023/09/03 03:56:33;;;;;;;5.05;2.20;;;;;;;26.25;42.99;100145.22;4483580;32;34374;-69
2023/09/03 03:59:01;;;;;;;6.87;1.80;;;;;;;26.25;43.07;100164.38;4483433;32;33998;-65
2023/09/03 04:01:28;;;;;;;9.73;2.00;;;;;;;26.25;43.15;100167.13;4469179;32;34440;-70
2023/09/03 04:03:57;;;;;;;7.03;2.00;;;;;;;26.24;43.23;100177.22;4483255;32;33313;-67
2023/09/03 04:06:27;;;;;;;3.22;1.85;;;;;;;26.25;43.21;100180.78;4483463;32;33629;-70
2023/09/03 04:08:54;;;;;;;3.08;1.77;;;;;;;26.26;43.21;100182.50;4483361;32;33413;-71
2023/09/03 04:11:24;;;;;;;3.62;2.10;;;;;;;26.26;43.22;100207.09;4483210;32;33557;-69
2023/09/03 04:13:51;;;;;;;4.90;2.00;;;;;;;26.25;43.25;100205.41;4483395;32;33307;-69
2023/09/03 04:16:20;;;;;;;4.95;2.37;;;;;;;26.24;43.26;100199.13;4482122;32;33921;-63
2023/09/03 04:18:50;;;;;;;6.53;2.03;;;;;;;26.25;43.30;100202.69;4482155;32;33912;-65
2023/09/03 04:21:18;;;;;;;3.53;1.65;;;;;;;26.26;43.26;100205.19;4482222;32;34920;-66
2023/09/03 04:23:46;;;;;;;4.30;1.95;;;;;;;26.26;43.28;100198.91;4482950;32;32923;-63
2023/09/03 04:26:14;;;;;;;3.55;1.90;;;;;;;26.26;43.32;100204.38;4484749;32;34363;-70
2023/09/03 04:28:41;;;;;;;3.83;2.10;;;;;;;26.25;43.33;100199.94;4485247;32;33956;-67
2023/09/03 04:31:10;;;;;;;4.25;1.80;;;;;;;26.24;43.41;100201.84;4484946;32;34512;-71
2023/09/03 04:33:38;;;;;;;3.33;1.70;;;;;;;26.24;43.44;100210.06;4485485;32;33464;-66
2023/09/03 04:36:06;;;;;;;4.87;1.92;;;;;;;26.23;43.44;100205.66;4485312;32;34347;-69
2023/09/03 04:38:33;;;;;;;5.45;1.60;;;;;;;26.25;43.49;100205.41;4484903;32;33838;-64
2023/09/03 04:41:04;;;;;;;2.40;1.55;;;;;;;26.25;43.48;100199.94;4485312;32;34414;-66
2023/09/03 04:43:32;;;;;;;2.60;1.73;;;;;;;26.25;43.49;100197.22;4485316;32;34101;-66
2023/09/03 04:46:00;;;;;;;3.30;1.83;;;;;;;26.26;43.49;100199.72;4483601;32;33838;-71
2023/09/03 04:48:28;;;;;;;4.18;1.77;;;;;;;26.26;43.53;100182.50;4485008;32;33451;-66
2023/09/03 04:50:59;;;;;;;3.35;1.77;;;;;;;26.25;43.52;100178.88;4483842;32;33527;-67
2023/09/03 04:53:27;;;;;;;7.37;2.00;;;;;;;26.25;43.55;100183.53;4459004;32;32678;-70
2023/09/03 04:55:55;;;;;;;3.25;1.70;;;;;;;26.25;43.60;100184.38;4485311;32;34672;-64
2023/09/03 04:58:22;;;;;;;3.12;1.75;;;;;;;26.25;43.70;100183.53;4472965;32;33902;-67
2023/09/03 05:00:50;;;;;;;4.00;1.62;;;;;;;26.27;43.71;100178.69;4455090;32;33665;-64
2023/09/03 05:03:40;;;;;;;3.53;1.90;;;;;;;26.28;43.71;100186.63;4475659;32;33153;-68
2023/09/03 05:06:12;;;;;;;7.25;1.87;;;;;;;26.28;43.78;100181.16;4485270;32;33417;-63
2023/09/03 05:08:40;;;;;;;5.05;2.00;;;;;;;26.28;43.91;100177.59;4483745;32;35018;-67
2023/09/03 05:11:11;;;;;;;3.00;1.65;;;;;;;26.27;43.90;100174.03;4485034;32;34758;-68
2023/09/03 05:13:39;;;;;;;4.25;1.90;;;;;;;26.28;43.92;100167.47;4484750;32;33433;-67
2023/09/03 05:16:07;;;;;;;4.05;1.98;;;;;;;26.29;43.94;100173.78;4484985;32;33854;-66
2023/09/03 05:18:35;;;;;;;3.95;1.98;;;;;;;26.29;44.00;100171.06;4483416;32;33886;-63
2023/09/03 05:21:09;;;;;;;2.62;1.55;;;;;;;26.28;43.94;100172.97;4484716;32;33815;-67
2023/09/03 05:23:37;;;;;;;3.17;1.50;;;;;;;26.29;43.88;100182.81;4484730;32;34024;-67
2023/09/03 05:26:05;;;;;;;3.65;2.08;;;;;;;26.29;43.82;100192.94;4484532;32;33970;-63
2023/09/03 05:28:34;;;;;;;3.83;1.60;;;;;;;26.27;43.85;100178.69;4484726;32;33981;-62
2023/09/03 05:31:02;;;;;;;4.53;1.90;;;;;;;26.27;43.91;100174.03;4484950;32;33833;-63
2023/09/03 05:33:31;;;;;;;5.65;2.08;;;;;;;26.27;43.93;100178.69;4484777;32;33133;-66
2023/09/03 05:35:58;;;;;;;6.55;2.20;;;;;;;26.30;44.02;100189.13;4484501;32;33512;-69
2023/09/03 05:38:26;;;;;;;8.13;1.70;;;;;;;26.29;44.18;100182.00;4483037;32;34755;-71
2023/09/03 05:40:58;;;;;;;5.28;1.70;;;;;;;26.28;44.25;100175.69;4484817;32;33643;-70
2023/09/03 05:43:26;;;;;;;5.15;1.52;;;;;;;26.28;44.29;100166.66;4484545;32;32971;-67
2023/09/03 05:45:54;;;;;;;6.10;1.60;;;;;;;26.26;44.29;100172.37;4483400;32;34096;-63
2023/09/03 05:48:23;;;;;;;4.95;1.80;;;;;;;26.28;44.43;100180.34;4484478;32;33893;-65
2023/09/03 05:51:03;;;;;;;2.12;1.00;;;;;;;26.29;44.39;100182.00;4484847;32;33797;-66
2023/09/03 05:53:32;;;;;;;5.28;1.50;;;;;;;26.31;44.53;100182.59;4480188;31;34170;-69
2023/09/03 05:56:07;;;;;;;4.70;1.63;;;;;;;26.33;44.53;100191.41;4471289;31;33254;-63
2023/09/03 05:58:35;;;;;;;4.40;1.73;;;;;;;26.37;44.54;100198.91;4468621;32;33972;-65
2023/09/03 06:01:07;;;;;;;4.75;1.30;;;;;;;26.34;44.67;100201.25;4476402;32;33832;-71
2023/09/03 06:03:35;;;;;;;3.75;1.17;;;;;;;26.31;44.90;100216.25;4483157;32;34301;-68
2023/09/03 06:06:04;;;;;;;7.68;1.62;;;;;;;26.38;44.83;100216.16;4469941;32;33105;-67
2023/09/03 06:08:33;;;;;;;2.35;1.30;;;;;;;26.36;44.98;100202.72;4470146;32;33035;-64
2023/09/03 06:11:01;;;;;;;4.22;1.50;;;;;;;26.34;45.15;100193.06;4470011;32;34634;-71
2023/09/03 06:13:29;;;;;;;3.92;1.58;;;;;;;26.34;45.21;100165.69;4484092;32;33146;-64
2023/09/03 06:15:57;;;;;;;2.85;1.33;;;;;;;26.34;45.18;100180.22;4484028;32;34365;-73
2023/09/03 06:18:26;;;;;;;4.78;1.80;;;;;;;26.34;45.17;100180.22;4482456;32;32884;-69
2023/09/03 06:20:54;;;;;;;3.72;1.60;;;;;;;26.35;45.30;100183.81;4483572;32;33611;-65
2023/09/03 06:23:22;;;;;;;5.78;1.65;;;;;;;26.34;45.24;100174.72;4484117;32;33837;-71
2023/09/03 06:25:50;;;;;;;7.18;1.70;;;;;;;26.35;45.33;100181.91;4483818;32;33856;-66
2023/09/03 06:28:17;;;;;;;5.50;1.35;;;;;;;26.34;45.49;100177.47;4483765;32;33434;-68
2023/09/03 06:30:46;;;;;;;5.15;1.67;;;;;;;26.35;45.48;100181.91;4483867;32;33544;-66
2023/09/03 06:33:13;;;;;;;6.18;1.58;;;;;;;26.35;45.54;100190.09;4482243;32;32852;-67
2023/09/03 06:35:42;;;;;;;2.40;1.48;;;;;;;26.34;45.68;100196.63;4483833;32;34866;-64
2023/09/03 06:38:10;;;;;;;3.42;1.73;;;;;;;26.36;45.77;100205.44;4483712;32;33790;-70
2023/09/03 06:40:37;;;;;;;2.67;1.25;;;;;;;26.37;45.68;100217.22;4483591;32;33602;-65
2023/09/03 06:43:05;;;;;;;3.50;1.33;;;;;;;26.36;45.70;100231.97;4483805;32;34191;-69
2023/09/03 06:45:33;;;;;;;5.12;1.70;;;;;;;26.36;45.60;100240.19;4483883;32;33901;-71
2023/09/03 06:48:00;;;;;;;4.05;1.42;;;;;;;26.37;45.66;100248.16;4482612;32;33912;-70
2023/09/03 06:50:28;;;;;;;4.93;1.40;;;;;;;26.35;45.86;100244.81;4483431;32;33002;-68
2023/09/03 06:52:56;;;;;;;2.45;1.00;;;;;;;26.36;45.95;100249.22;4483740;32;33313;-64
2023/09/03 06:55:23;;;;;;;7.00;1.23;;;;;;;26.36;46.02;100251.97;4482339;32;33980;-68
2023/09/03 06:57:52;;;;;;;5.30;1.00;;;;;;;26.37;46.11;100245.41;4483554;32;33579;-64
2023/09/03 07:00:22;;;;;;;5.25;1.33;;;;;;;26.36;46.17;100237.44;4483308;32;33798;-65
2023/09/03 07:02:50;;;;;;;2.87;0.98;;;;;;;26.38;46.21;100224.34;4483511;32;33433;-70
2023/09/03 07:05:18;;;;;;;2.72;1.20;;;;;;;26.38;46.25;100221.62;4483792;32;34065;-65
2023/09/03 07:07:45;;;;;;;3.50;1.05;;;;;;;26.39;46.24;100220.53;4483492;32;34746;-70
2023/09/03 07:10:13;;;;;;;2.78;1.30;;;;;;;26.40;46.23;100224.97;4483178;32;34042;-71
2023/09/03 07:12:41;;;;;;;2.50;1.42;;;;;;;26.40;46.19;100227.69;4483651;32;33995;-71
2023/09/03 07:15:12;;;;;;;3.53;1.00;;;;;;;26.39;46.20;100226.00;4481952;32;34071;-72
2023/09/03 07:17:45;;;;;;;2.83;1.12;;;;;;;26.41;46.28;100227.47;4483475;32;34743;-69
2023/09/03 07:20:13;;;;;;;2.55;1.12;;;;;;;26.42;46.20;100222.81;4483488;32;33745;-71
2023/09/03 07:22:48;;;;;;;2.20;0.93;;;;;;;26.42;46.25;100214.59;4483075;32;33458;-70
2023/09/03 07:25:16;;;;;;;1.85;1.00;;;;;;;26.43;46.18;100213.56;4482294;32;34676;-71
2023/09/03 07:27:43;;;;;;;4.22;1.40;;;;;;;26.44;46.26;100217.97;4481878;32;33728;-71
2023/09/03 07:30:11;;;;;;;3.67;1.20;;;;;;;26.45;46.33;100217.75;4483465;32;33528;-66
2023/09/03 07:32:39;;;;;;;7.60;1.50;;;;;;;26.45;46.30;100211.44;4483459;32;33385;-71
2023/09/03 07:35:07;;;;;;;3.33;1.65;;;;;;;26.46;46.39;100215.84;4483411;32;33568;-69
2023/09/03 07:37:35;;;;;;;6.80;1.33;;;;;;;26.48;46.36;100212.84;4483325;32;33938;-68
2023/09/03 07:40:03;;;;;;;7.07;1.27;;;;;;;26.48;46.35;100215.59;4483677;32;34640;-63
2023/09/03 07:42:31;;;;;;;4.37;1.30;;;;;;;26.48;46.38;100221.88;4483707;32;34100;-70
2023/09/03 07:44:58;;;;;;;5.68;1.48;;;;;;;26.48;46.36;100230.09;4483518;32;33184;-64
2023/09/03 07:47:26;;;;;;;4.22;1.45;;;;;;;26.49;46.40;100225.47;4483538;32;34399;-66
2023/09/03 07:49:54;;;;;;;3.50;1.30;;;;;;;26.48;46.55;100230.09;4483702;32;33897;-62
2023/09/03 07:52:21;;;;;;;6.68;1.20;;;;;;;26.50;46.53;100230.72;4483507;32;32806;-68
2023/09/03 07:54:49;;;;;;;4.70;1.30;;;;;;;26.50;46.45;100235.34;4483559;32;35441;-69
2023/09/03 07:57:16;;;;;;;1.90;1.12;;;;;;;26.50;46.53;100236.19;4483715;32;33163;-66
2023/09/03 07:59:44;;;;;;;3.05;1.48;;;;;;;26.48;46.44;100235.56;4483042;32;33825;-66
2023/09/03 08:02:11;;;;;;;4.80;1.50;;;;;;;26.50;46.43;100238.09;4483574;32;33349;-65
2023/09/03 08:04:41;;;;;;;3.95;1.15;;;;;;;26.49;46.47;100233.66;4482230;32;34741;-65
2023/09/03 08:07:08;;;;;;;3.80;1.15;;;;;;;26.48;46.49;100229.28;4482007;32;34994;-67
2023/09/03 08:09:36;;;;;;;3.45;1.17;;;;;;;26.49;46.47;100225.47;4483393;32;33659;-63
2023/09/03 08:12:04;;;;;;;1.77;0.93;;;;;;;26.50;46.45;100229.88;4483376;32;34283;-68
2023/09/03 08:14:32;;;;;;;2.47;1.12;;;;;;;26.49;46.55;100223.59;4483341;32;33588;-62
2023/09/03 08:17:00;;;;;;;2.30;0.93;;;;;;;26.48;46.56;100224.63;4483181;32;33902;-65
2023/09/03 08:19:27;;;;;;;2.10;1.10;;;;;;;26.49;46.64;100218.09;4483291;32;33261;-66
2023/09/03 08:21:55;;;;;;;2.10;1.10;;;;;;;26.49;46.68;100237.25;4483125;32;33792;-69
2023/09/03 08:24:22;;;;;;;2.97;1.10;;;;;;;26.49;46.83;100237.25;4483243;32;33432;-65
2023/09/03 08:26:50;;;;;;;1.52;0.90;;;;;;;26.50;47.12;100235.34;4482594;32;34123;-66
2023/09/03 08:29:17;;;;;;;2.37;1.00;;;;;;;26.49;47.11;100236.41;4482542;32;33404;-68
2023/09/03 08:31:45;;;;;;;7.40;1.40;;;;;;;26.49;46.93;100247.34;4482814;32;33239;-62
2023/09/03 08:34:14;;;;;;;3.75;1.33;;;;;;;26.50;46.91;100240.81;4482781;32;34079;-68
2023/09/03 08:36:41;;;;;;;1.83;0.98;;;;;;;26.51;46.99;100247.97;4482900;32;34820;-61
2023/09/03 08:39:09;;;;;;;3.75;1.62;;;;;;;26.50;47.09;100240.81;4482943;32;34541;-68
2023/09/03 08:41:38;;;;;;;7.35;1.37;;;;;;;26.51;47.07;100232.38;4483067;32;33134;-62
2023/09/03 08:44:10;;;;;;;2.72;1.17;;;;;;;26.51;47.18;100235.09;4472805;32;33798;-70
2023/09/03 08:46:37;;;;;;;3.55;1.40;;;;;;;26.51;47.40;100237.84;4480657;32;34253;-62
2023/09/03 08:49:05;;;;;;;4.80;1.52;;;;;;;26.53;47.22;100229.38;4468300;32;33431;-61
2023/09/03 08:51:33;;;;;;;2.72;1.48;;;;;;;26.53;47.34;100222.00;4481415;32;33312;-64
2023/09/03 08:54:01;;;;;;;4.37;1.70;;;;;;;26.54;47.46;100226.44;4468534;32;33971;-68
2023/09/03 08:56:33;;;;;;;2.50;1.30;;;;;;;26.55;47.81;100224.53;4481308;32;33714;-70
2023/09/03 08:59:00;;;;;;;;;;;;;;;26.56;47.91;100227.03;4469024;32;33703;-66
2023/09/03 09:01:29;;;;;;;5.47;1.45;;;;;;;26.63;47.63;100233.22;4481521;32;33284;-70
2023/09/03 09:04:00;;;;;;;2.25;1.20;;;;;;;26.56;47.85;100235.22;4472663;32;33969;-71
2023/09/03 09:06:27;;;;;;;4.82;1.20;;;;;;;26.56;48.13;100237.13;4466852;32;33895;-67
2023/09/03 09:08:57;;;;;;;2.55;1.23;;;;;;;26.55;48.09;100238.22;4452691;32;35086;-63
2023/09/03 09:11:24;;;;;;;4.30;1.62;;;;;;;26.56;48.10;100235.22;4472173;32;33003;-70
2023/09/03 09:13:55;;;;;;;4.57;1.50;;;;;;;26.58;48.44;100234.97;4463941;32;33906;-64
2023/09/03 09:16:23;;;;;;;3.15;1.40;;;;;;;26.59;48.49;100237.50;4476475;32;33693;-64
2023/09/03 09:18:50;;;;;;;6.55;1.70;;;;;;;26.60;48.54;100236.44;4476931;32;34433;-69
2023/09/03 09:21:18;;;;;;;2.80;1.67;;;;;;;26.63;48.53;100227.75;4484436;32;33366;-68
2023/09/03 09:23:46;;;;;;;2.47;1.42;;;;;;;26.62;48.29;100226.06;4481832;32;33927;-65
2023/09/03 09:26:22;;;;;;;2.85;1.40;;;;;;;26.61;48.45;100229.88;4484409;32;33847;-63
2023/09/03 09:29:02;;;;;;;4.30;1.70;;;;;;;26.64;48.39;100228.59;4482456;32;34575;-62
2023/09/03 09:31:31;;;;;;;5.87;1.50;;;;;;;26.66;48.47;100243.69;4482923;32;34072;-62
2023/09/03 09:34:10;;;;;;;3.25;2.10;;;;;;;26.68;48.39;100251.66;4483175;32;34514;-67
2023/09/03 09:36:38;;;;;;;3.15;1.30;;;;;;;26.67;48.31;100259.06;4483510;32;33576;-71
2023/09/03 09:39:06;;;;;;;2.67;1.40;;;;;;;26.65;48.48;100254.88;4482253;32;34468;-61
2023/09/03 09:41:37;;;;;;;4.45;1.77;;;;;;;26.65;48.50;100252.12;4484582;32;33142;-61
2023/09/03 09:44:12;;;;;;;4.20;1.50;;;;;;;26.64;48.28;100240.34;4483398;32;33576;-63
2023/09/03 09:46:39;;;;;;;3.40;1.10;;;;;;;26.68;47.95;100236.06;4484247;32;33816;-66
2023/09/03 09:49:08;;;;;;;4.37;1.17;;;;;;;26.66;47.88;100232.72;4481289;31;33239;-60
2023/09/03 09:51:35;;;;;;;6.15;1.23;;;;;;;26.65;47.87;100246.66;4484027;32;33066;-61
2023/09/03 09:54:03;;;;;;;7.03;1.62;;;;;;;26.63;47.76;100244.16;4469918;32;33608;-61
2023/09/03 09:56:34;;;;;;;4.07;1.42;;;;;;;26.63;47.77;100257.84;4484037;32;34744;-60
2023/09/03 09:59:02;;;;;;;2.53;1.45;;;;;;;26.63;47.75;100263.34;4484254;32;34220;-61
2023/09/03 10:01:46;;;;;;;1.75;1.20;;;;;;;26.63;47.73;100259.75;4483971;32;34022;-66
2023/09/03 10:04:25;;;;;;;2.10;1.10;;;;;;;26.72;47.43;100266.56;4484119;32;33577;-68
2023/09/03 10:06:52;;;;;;;3.17;1.40;;;;;;;26.68;47.28;100266.19;4481964;32;34005;-67
2023/09/03 10:09:20;;;;;;;2.10;1.00;;;;;;;26.76;46.96;100261.41;4455506;32;34159;-61
2023/09/03 10:11:48;;;;;;;2.90;1.50;;;;;;;26.80;46.68;100266.19;4454809;32;34257;-62
2023/09/03 10:14:16;;;;;;;3.80;1.10;;;;;;;26.83;46.52;100257.50;4467014;32;33848;-64
2023/09/03 10:16:44;;;;;;;1.75;1.10;;;;;;;26.85;46.41;100260.81;4468358;32;33922;-68
2023/09/03 10:19:13;;;;;;;2.25;1.10;;;;;;;26.86;46.31;100253.44;4468292;32;33736;-61
2023/09/03 10:21:41;;;;;;;2.45;1.25;;;;;;;26.87;46.20;100253.22;4454301;32;34111;-62
2023/09/03 10:24:23;;;;;;;1.92;1.08;;;;;;;26.88;46.05;100257.63;4455925;32;34766;-62
2023/09/03 10:26:53;;;;;;;3.15;1.20;;;;;;;26.89;45.96;100252.97;4454449;32;33564;-64
2023/09/03 10:29:22;;;;;;;1.55;1.00;;;;;;;26.87;45.98;100261.44;4476208;32;33812;-62
2023/09/03 10:31:49;;;;;;;3.40;1.08;;;;;;;26.89;45.92;100259.28;4484500;32;33099;-62
2023/09/03 10:34:17;;;;;;;7.43;1.27;;;;;;;26.87;45.86;100255.94;4482859;32;34681;-62
2023/09/03 10:37:07;;;;;;;3.85;1.25;;;;;;;26.88;45.82;100256.78;4483078;32;33576;-61
2023/09/03 10:39:35;;;;;;;4.20;1.65;;;;;;;26.89;45.79;100258.44;4483012;32;34519;-61
2023/09/03 10:42:15;;;;;;;16.08;1.45;;;;;;;26.88;45.77;100263.09;4484219;32;34173;-63
2023/09/03 10:44:45;;;;;;;4.60;1.23;;;;;;;26.90;45.81;100258.19;4481273;32;33535;-66
2023/09/03 10:47:17;;;;;;;3.62;1.30;;;;;;;26.87;45.89;100250.47;4477552;32;34931;-67
2023/09/03 10:49:46;;;;;;;5.50;1.52;;;;;;;26.89;45.91;100244.75;4483462;32;34313;-71
2023/09/03 10:52:26;;;;;;;4.07;1.40;;;;;;;26.89;45.93;100250.22;4483439;32;32973;-72
2023/09/03 10:55:12;;;;;;;5.05;1.20;;;;;;;26.92;45.88;100253.31;4483464;32;33870;-61
2023/09/03 10:57:42;;;;;;;2.62;1.30;;;;;;;26.93;45.83;100245.94;4483551;32;33727;-63
2023/09/03 11:00:23;;;;;;;4.47;1.40;;;;;;;26.90;45.98;100251.88;4483562;32;33957;-71
2023/09/03 11:03:13;;;;;;;3.03;1.20;;;;;;;26.91;46.01;100253.56;4473091;32;33478;-62
2023/09/03 11:05:42;;;;;;;3.13;1.50;;;;;;;26.90;45.99;100241.75;4482211;32;34562;-61
2023/09/03 11:08:22;;;;;;;6.43;1.73;;;;;;;26.91;45.95;100240.72;4459427;32;33763;-62
2023/09/03 11:10:49;;;;;;;5.32;1.65;;;;;;;26.93;46.02;100245.94;4467136;32;33773;-62
2023/09/03 11:13:18;;;;;;;5.75;1.83;;;;;;;26.91;46.00;100246.19;4477946;32;33350;-62
2023/09/03 11:16:04;;;;;;;2.87;1.60;;;;;;;26.91;46.08;100256.31;4466795;32;33948;-62
2023/09/03 11:18:33;;;;;;;2.72;1.55;;;;;;;26.92;46.13;100252.50;4474900;32;33821;-61
2023/09/03 11:21:01;;;;;;;3.70;1.55;;;;;;;26.91;46.21;100240.72;4467778;32;35238;-64
2023/09/03 11:23:30;;;;;;;7.85;1.62;;;;;;;26.91;46.27;100237.97;4468057;32;32890;-65
2023/09/03 11:26:05;;;;;;;2.95;1.70;;;;;;;26.92;46.34;100236.06;4467661;32;34010;-62
2023/09/03 11:28:37;;;;;;;3.92;1.65;;;;;;;26.91;46.36;100235.25;4469704;32;34752;-63
2023/09/03 11:31:05;;;;;;;3.22;1.50;;;;;;;26.91;46.42;100243.47;4471437;32;33839;-69
2023/09/03 11:33:34;;;;;;;3.62;1.75;;;;;;;26.91;46.55;100235.25;4467634;32;33026;-72
2023/09/03 11:36:01;;;;;;;5.45;1.80;;;;;;;26.92;46.56;100233.34;4467352;32;34272;-62
2023/09/03 11:38:30;;;;;;;3.60;1.75;;;;;;;26.92;46.55;100238.81;4467744;32;34939;-66